Time;durP1;ratioP1;P1;durP2;ratioP2;P2;SDS_P1;SDS_P2;PMS_P1;PMS_P2;Temp;Humidity;BMP_temperature;BMP_pressure;BME280_temperature;BME280_humidity;BME280_pressure;Samples;Min_cycle;Max_cycle;Signal;HPM_P1;HPM_P2
2023/04/21 00:00:07;;;;;;;9.25;4.90;;;;;;;10.48;35.77;149927.19;5047511;28;20044;-63
2023/04/21 00:02:33;;;;;;;10.48;5.85;;;;;;;10.42;35.10;149911.78;5045750;28;20110;-63
2023/04/21 00:04:59;;;;;;;7.57;5.03;;;;;;;10.42;35.41;149913.09;5055041;28;20332;-62
2023/04/21 00:07:24;;;;;;;9.57;5.53;;;;;;;10.39;35.96;149904.09;5060668;28;20026;-63
2023/04/21 00:09:50;;;;;;;10.45;5.45;;;;;;;10.34;35.83;149892.56;5045826;28;20330;-64
2023/04/21 00:12:15;;;;;;;10.45;5.05;;;;;;;10.31;35.16;149886.09;5045474;28;20155;-62
2023/04/21 00:14:41;;;;;;;9.80;5.10;;;;;;;10.27;34.96;149874.56;5045436;28;20029;-64
2023/04/21 00:17:07;;;;;;;8.90;5.40;;;;;;;10.23;35.15;149864.31;5048421;28;20068;-66
2023/04/21 00:19:34;;;;;;;6.05;4.60;;;;;;;10.17;35.15;149851.47;5051137;28;20033;-64
2023/04/21 00:22:00;;;;;;;8.70;5.63;;;;;;;10.16;36.16;149848.94;5063636;28;20036;-63
2023/04/21 00:24:26;;;;;;;9.10;5.25;;;;;;;10.12;35.07;149838.69;5046562;28;20055;-63
2023/04/21 00:26:51;;;;;;;13.10;5.75;;;;;;;10.00;34.85;149807.88;5068355;28;20028;-64
2023/04/21 00:29:17;;;;;;;9.50;5.65;;;;;;;9.96;35.65;149798.94;5053451;28;20032;-64
2023/04/21 00:31:43;;;;;;;11.88;6.35;;;;;;;10.01;35.36;149810.47;5053401;28;20083;-64
2023/04/21 00:34:08;;;;;;;10.40;5.53;;;;;;;10.04;35.40;149818.16;5060340;28;20021;-63
2023/04/21 00:36:34;;;;;;;9.45;5.78;;;;;;;9.95;36.01;149795.09;5045319;28;20029;-63
2023/04/21 00:39:00;;;;;;;14.73;6.50;;;;;;;10.00;35.97;149807.88;5062118;28;20187;-63
2023/04/21 00:41:27;;;;;;;10.82;5.47;;;;;;;9.84;36.53;149769.44;5056520;28;20029;-64
2023/04/21 00:44:04;;;;;;;8.68;5.72;;;;;;;9.83;36.44;149766.91;5052720;28;20086;-63
2023/04/21 00:46:29;;;;;;;7.57;5.45;;;;;;;9.81;34.82;149761.75;5055568;28;20037;-64
2023/04/21 00:48:56;;;;;;;10.18;5.30;;;;;;;9.80;36.05;149759.16;5044631;28;20049;-63
2023/04/21 00:51:22;;;;;;;11.43;6.15;;;;;;;9.76;36.07;149747.66;5063826;28;20040;-65
2023/04/21 00:53:49;;;;;;;10.00;5.25;;;;;;;9.78;35.96;149752.81;5048630;28;20104;-66
2023/04/21 00:56:15;;;;;;;10.20;6.05;;;;;;;9.77;35.78;149750.22;5048952;28;20075;-63
2023/04/21 00:58:41;;;;;;;7.68;5.00;;;;;;;9.72;35.70;149738.69;5050643;28;20028;-62
2023/04/21 01:01:07;;;;;;;14.02;5.32;;;;;;;9.65;36.34;149722.03;5060714;28;20033;-63
2023/04/21 01:03:33;;;;;;;9.23;5.15;;;;;;;9.60;35.80;149707.94;5044634;28;20052;-63
2023/04/21 01:05:59;;;;;;;7.70;5.18;;;;;;;9.60;35.85;149709.19;5057430;28;20089;-63
2023/04/21 01:08:25;;;;;;;7.45;4.93;;;;;;;9.59;35.87;149705.34;5052169;28;20226;-62
2023/04/21 01:10:51;;;;;;;7.20;4.68;;;;;;;9.64;36.13;149719.44;5047016;28;20036;-63
2023/04/21 01:13:23;;;;;;;9.00;4.75;;;;;;;9.63;36.39;149715.63;5060896;28;20030;-63
2023/04/21 01:15:48;;;;;;;8.30;5.28;;;;;;;9.49;35.79;149682.31;5047607;28;20033;-63
2023/04/21 01:18:15;;;;;;;9.73;5.20;;;;;;;9.41;36.25;149660.53;5044191;28;20075;-63
2023/04/21 01:20:43;;;;;;;8.30;4.75;;;;;;;9.38;36.34;149654.13;5044508;28;20021;-64
2023/04/21 01:23:09;;;;;;;6.45;4.10;;;;;;;9.40;36.02;149657.97;5044010;28;20072;-63
2023/04/21 01:25:35;;;;;;;6.40;4.55;;;;;;;9.29;36.44;149632.34;5048558;28;20097;-62
2023/04/21 01:28:01;;;;;;;8.63;4.75;;;;;;;9.33;37.35;149642.59;5063229;28;20040;-65
2023/04/21 01:30:27;;;;;;;5.18;4.63;;;;;;;9.27;36.32;149625.94;5044169;28;20032;-64
2023/04/21 01:32:53;;;;;;;6.65;4.60;;;;;;;9.34;37.38;149643.88;5060046;28;20080;-63
2023/04/21 01:35:19;;;;;;;9.75;4.90;;;;;;;9.36;36.61;149648.97;5049615;28;20038;-63
2023/04/21 01:37:45;;;;;;;5.90;4.85;;;;;;;9.34;35.83;149643.88;5044082;28;20056;-63
2023/04/21 01:40:11;;;;;;;8.50;4.43;;;;;;;9.35;36.71;149645.13;5045476;28;20033;-63
2023/04/21 01:42:39;;;;;;;6.72;4.75;;;;;;;9.28;37.12;149628.50;5063426;28;20021;-63
2023/04/21 01:45:05;;;;;;;7.28;4.45;;;;;;;9.29;36.39;149632.34;5059146;28;20025;-62
2023/04/21 01:47:31;;;;;;;8.07;4.40;;;;;;;9.16;37.21;149599.00;5056419;28;20021;-62
2023/04/21 01:49:56;;;;;;;7.85;4.55;;;;;;;9.18;36.99;149602.84;5055619;28;20029;-63
2023/04/21 01:52:22;;;;;;;6.68;4.82;;;;;;;9.14;37.28;149593.91;5043524;28;20037;-62
2023/04/21 01:54:48;;;;;;;7.68;4.45;;;;;;;9.21;36.77;149610.56;5042582;28;20233;-63
2023/04/21 01:57:14;;;;;;;6.32;4.10;;;;;;;9.09;37.39;149581.06;5047769;28;20101;-63
2023/04/21 01:59:40;;;;;;;9.10;4.38;;;;;;;9.03;36.85;149567.00;5042346;28;20036;-62
2023/04/21 02:02:06;;;;;;;8.57;3.88;;;;;;;9.01;36.22;149561.88;5043558;28;20213;-63
2023/04/21 02:04:32;;;;;;;8.60;4.25;;;;;;;8.91;36.92;149536.28;5047981;28;20425;-62
2023/04/21 02:06:57;;;;;;;8.32;4.15;;;;;;;8.93;37.50;149542.66;5063050;28;20191;-62
2023/04/21 02:09:23;;;;;;;6.63;4.00;;;;;;;8.96;36.49;149550.38;5043175;28;20210;-62
2023/04/21 02:11:48;;;;;;;9.25;4.45;;;;;;;8.96;36.60;149550.38;5043463;28;20021;-63
2023/04/21 02:14:14;;;;;;;9.30;4.20;;;;;;;8.99;36.27;149556.72;5042891;28;20340;-63
2023/04/21 02:16:39;;;;;;;7.82;3.88;;;;;;;8.96;37.90;149549.06;5043422;28;20060;-64
2023/04/21 02:19:05;;;;;;;10.60;4.10;;;;;;;8.93;37.32;149541.38;5042817;28;20340;-64
2023/04/21 02:21:31;;;;;;;15.55;4.55;;;;;;;8.86;36.56;149524.72;5042902;28;20105;-64
2023/04/21 02:23:57;;;;;;;9.80;4.25;;;;;;;8.94;37.96;149543.94;5043172;28;20032;-64
2023/04/21 02:26:22;;;;;;;11.30;4.15;;;;;;;8.88;36.83;149528.56;5053654;28;20033;-64
2023/04/21 02:28:49;;;;;;;7.18;4.10;;;;;;;8.86;36.84;149524.72;5056469;28;20033;-64
2023/04/21 02:31:15;;;;;;;6.82;4.20;;;;;;;8.84;37.13;149519.63;5044496;28;20036;-63
2023/04/21 02:33:41;;;;;;;11.82;4.53;;;;;;;8.84;38.39;149519.63;5061879;28;20096;-63
2023/04/21 02:36:06;;;;;;;10.10;5.05;;;;;;;8.80;37.95;149510.63;5042957;28;20048;-63
2023/04/21 02:38:32;;;;;;;11.27;4.80;;;;;;;8.78;37.07;149504.25;5042086;28;20037;-64
2023/04/21 02:40:58;;;;;;;11.23;4.90;;;;;;;8.83;38.62;149515.78;5050444;28;20029;-64
2023/04/21 02:43:23;;;;;;;9.93;5.10;;;;;;;8.77;38.63;149501.69;5059839;28;20029;-63
2023/04/21 02:45:50;;;;;;;11.32;4.80;;;;;;;8.75;38.14;149497.84;5043079;28;20225;-64
2023/04/21 02:48:21;;;;;;;9.20;4.60;;;;;;;8.74;38.24;149495.28;5042564;28;20029;-65
2023/04/21 02:50:48;;;;;;;9.25;4.57;;;;;;;8.77;37.24;149502.94;5056906;28;20075;-65
2023/04/21 02:53:14;;;;;;;12.40;5.13;;;;;;;8.74;37.95;149494.00;5052868;28;20041;-64
2023/04/21 02:55:39;;;;;;;8.10;4.93;;;;;;;8.66;37.24;149474.78;5042799;28;20093;-64
2023/04/21 02:58:06;;;;;;;13.68;5.32;;;;;;;8.78;38.81;149504.25;5042572;28;20041;-63
2023/04/21 03:00:31;;;;;;;12.75;5.70;;;;;;;8.79;38.84;149508.09;5042771;28;20099;-62
2023/04/21 03:02:57;;;;;;;7.05;4.80;;;;;;;8.88;37.43;149529.88;5043110;28;20188;-63
2023/04/21 03:05:23;;;;;;;12.20;5.43;;;;;;;8.86;38.49;149524.72;5053608;28;20028;-64
2023/04/21 03:07:49;;;;;;;12.20;5.75;;;;;;;8.89;38.04;149532.44;5074024;28;20190;-64
2023/04/21 03:10:15;;;;;;;11.80;5.07;;;;;;;8.90;38.17;149533.72;5060814;28;20032;-64
2023/04/21 03:12:41;;;;;;;9.95;4.65;;;;;;;8.91;37.78;149537.53;5042812;28;20052;-63
2023/04/21 03:15:07;;;;;;;12.23;5.20;;;;;;;8.99;38.29;149556.72;5042505;28;20199;-63
2023/04/21 03:17:32;;;;;;;8.50;4.60;;;;;;;9.19;37.48;149605.44;5046949;28;20028;-64
2023/04/21 03:19:58;;;;;;;9.30;5.22;;;;;;;9.53;36.67;149691.25;5042573;28;20314;-65
2023/04/21 03:22:23;;;;;;;9.93;5.22;;;;;;;9.89;36.16;149779.69;5043648;28;20090;-64
2023/04/21 03:24:49;;;;;;;11.02;5.43;;;;;;;9.87;35.85;149775.84;5062464;28;20021;-63
2023/04/21 03:27:14;;;;;;;8.15;5.47;;;;;;;10.29;36.65;149879.66;5044343;28;20032;-63
2023/04/21 03:29:40;;;;;;;11.27;5.38;;;;;;;10.39;36.63;149905.41;5042562;28;20090;-64
2023/04/21 03:32:05;;;;;;;9.48;4.78;;;;;;;10.36;36.64;149897.66;5044641;28;20021;-64
2023/04/21 03:34:31;;;;;;;13.93;4.90;;;;;;;10.65;35.68;149969.53;5050184;28;20036;-64
2023/04/21 03:36:57;;;;;;;12.15;5.20;;;;;;;11.17;35.57;150100.38;5062060;28;20033;-64
2023/04/21 03:39:22;;;;;;;9.07;5.10;;;;;;;11.16;33.91;150096.47;5043328;28;20151;-63
2023/04/21 03:41:48;;;;;;;12.23;5.78;;;;;;;11.31;34.42;150133.72;5042440;28;20294;-65
2023/04/21 03:44:13;;;;;;;8.65;4.78;;;;;;;11.48;33.73;150177.31;5042016;28;20022;-64
2023/04/21 03:46:39;;;;;;;13.60;5.20;;;;;;;11.95;33.51;150292.91;5042610;28;20042;-66
2023/04/21 03:49:05;;;;;;;9.13;5.50;;;;;;;12.65;32.80;150467.56;5042535;28;20064;-65
2023/04/21 03:51:31;;;;;;;8.38;5.20;;;;;;;12.72;32.52;150485.53;5065384;28;20059;-64
2023/04/21 03:53:57;;;;;;;10.30;4.78;;;;;;;12.33;33.27;150387.94;5050837;28;20088;-64
2023/04/21 03:56:22;;;;;;;12.07;5.30;;;;;;;12.05;32.93;150318.59;5045550;28;20418;-65
2023/04/21 03:58:48;;;;;;;8.88;4.43;;;;;;;11.92;33.60;150287.72;5045735;28;20041;-64
2023/04/21 04:01:14;;;;;;;12.38;5.35;;;;;;;11.58;33.59;150203.00;5050469;28;20249;-64
2023/04/21 04:03:40;;;;;;;9.70;4.82;;;;;;;11.29;33.75;150128.59;5045891;28;20325;-64
2023/04/21 04:06:06;;;;;;;9.95;4.22;;;;;;;11.12;33.90;150087.53;5045317;28;20246;-64
2023/04/21 04:08:31;;;;;;;9.50;4.70;;;;;;;11.12;34.26;150087.53;5062648;28;20041;-65
2023/04/21 04:10:57;;;;;;;9.13;4.72;;;;;;;11.09;34.61;150079.84;5064645;28;20206;-64
2023/04/21 04:13:25;;;;;;;9.77;4.35;;;;;;;10.97;33.76;150049.03;5062312;28;20049;-64
2023/04/21 04:15:51;;;;;;;12.30;4.68;;;;;;;10.93;33.58;150040.06;5045341;28;20041;-64
2023/04/21 04:18:16;;;;;;;12.27;4.22;;;;;;;11.12;34.45;150087.53;5045226;28;20036;-64
2023/04/21 04:20:42;;;;;;;8.52;3.72;;;;;;;10.92;33.60;150036.22;5057802;28;20025;-64
2023/04/21 04:23:07;;;;;;;6.13;3.70;;;;;;;11.03;33.67;150064.41;5056836;28;20286;-64
2023/04/21 04:25:33;;;;;;;5.03;3.67;;;;;;;11.07;33.49;150073.41;5046784;28;20021;-64
2023/04/21 04:27:59;;;;;;;9.18;4.43;;;;;;;11.10;34.19;150081.09;5072045;28;20051;-64
2023/04/21 04:30:27;;;;;;;9.27;3.33;;;;;;;11.18;33.43;150102.91;5065848;28;20032;-64
2023/04/21 04:32:53;;;;;;;8.15;4.10;;;;;;;11.04;32.72;150068.28;5059508;28;20084;-63
2023/04/21 04:35:18;;;;;;;8.73;3.53;;;;;;;11.19;33.98;150104.22;5050581;28;20310;-63
2023/04/21 04:37:44;;;;;;;5.75;3.80;;;;;;;11.27;34.45;150124.69;5045184;28;20070;-64
2023/04/21 04:40:13;;;;;;;10.50;3.95;;;;;;;11.07;32.92;150074.66;5044824;28;20099;-63
2023/04/21 04:42:39;;;;;;;5.13;3.45;;;;;;;10.97;32.59;150049.03;5047392;28;20029;-65
2023/04/21 04:45:07;;;;;;;4.75;3.58;;;;;;;11.05;31.92;150069.56;5044780;28;20090;-63
2023/04/21 04:47:33;;;;;;;3.80;2.97;;;;;;;11.15;33.04;150095.22;5044988;28;20337;-62
2023/04/21 04:49:59;;;;;;;4.10;3.03;;;;;;;11.23;32.35;150114.47;5051255;28;20029;-62
2023/04/21 04:52:25;;;;;;;4.95;2.88;;;;;;;11.40;32.72;150156.78;5061841;28;20044;-65
2023/04/21 04:54:50;;;;;;;8.38;3.67;;;;;;;11.49;32.55;150178.63;5044632;28;20341;-64
2023/04/21 04:57:16;;;;;;;7.97;3.05;;;;;;;11.54;31.98;150192.75;5043937;28;20029;-63
2023/04/21 04:59:41;;;;;;;4.68;3.40;;;;;;;11.54;31.76;150192.75;5055361;28;20029;-62
2023/04/21 05:02:07;;;;;;;4.30;3.17;;;;;;;11.57;31.72;150200.44;5049480;28;20033;-63
2023/04/21 05:04:33;;;;;;;6.85;3.17;;;;;;;11.61;31.87;150209.41;5045689;28;20036;-65
2023/04/21 05:06:59;;;;;;;5.55;3.63;;;;;;;11.68;32.46;150227.38;5063750;28;20106;-66
2023/04/21 05:09:24;;;;;;;4.57;3.00;;;;;;;12.34;31.98;150391.78;5059527;28;20092;-65
2023/04/21 05:11:50;;;;;;;7.63;3.15;;;;;;;13.05;30.81;150569.03;5054138;28;20056;-65
2023/04/21 05:14:16;;;;;;;10.13;3.50;;;;;;;13.33;30.25;150637.16;5054600;28;20021;-66
2023/04/21 05:16:44;;;;;;;8.90;3.50;;;;;;;13.34;30.13;150639.69;5044258;28;20061;-65
2023/04/21 05:19:10;;;;;;;7.43;2.78;;;;;;;13.25;30.79;150617.84;5042889;28;20021;-66
2023/04/21 05:21:35;;;;;;;5.88;3.17;;;;;;;13.28;30.12;150626.88;5044236;28;20239;-65
2023/04/21 05:24:01;;;;;;;25.23;4.30;;;;;;;13.46;30.44;150670.59;5044117;28;20332;-64
2023/04/21 05:26:28;;;;;;;9.05;2.97;;;;;;;13.46;30.74;150670.59;5052325;28;20021;-64
2023/04/21 05:28:55;;;;;;;12.45;3.60;;;;;;;13.42;30.69;150660.31;5057893;28;20029;-64
2023/04/21 05:31:21;;;;;;;7.47;3.42;;;;;;;13.50;30.31;150680.91;5043502;28;20036;-63
2023/04/21 05:33:47;;;;;;;6.03;2.95;;;;;;;13.72;29.19;150734.88;5043862;28;20024;-63
2023/04/21 05:36:12;;;;;;;6.40;3.42;;;;;;;13.52;29.36;150684.75;5048378;28;20036;-63
2023/04/21 05:38:38;;;;;;;7.10;3.60;;;;;;;14.19;29.87;150853.16;5050656;28;20029;-62
2023/04/21 05:41:04;;;;;;;12.45;3.42;;;;;;;14.50;28.24;150931.59;5043605;28;20029;-64
2023/04/21 05:43:33;;;;;;;5.20;3.25;;;;;;;14.41;28.19;150907.16;5043736;28;20025;-64
2023/04/21 05:46:07;;;;;;;4.85;2.83;;;;;;;15.04;27.30;151064.19;5043660;28;20026;-64
2023/04/21 05:48:33;;;;;;;6.55;3.10;;;;;;;15.46;26.59;151169.69;5043473;28;20031;-64
2023/04/21 05:51:14;;;;;;;5.28;3.17;;;;;;;15.94;27.06;151289.47;5057231;28;20025;-64
2023/04/21 05:53:41;;;;;;;8.77;3.15;;;;;;;16.25;26.70;151368.03;5059023;28;20049;-64
2023/04/21 05:56:10;;;;;;;7.40;2.80;;;;;;;16.56;25.79;151445.31;5045106;28;20033;-65
2023/04/21 05:58:36;;;;;;;6.57;2.88;;;;;;;16.97;26.21;151548.38;5042950;28;20136;-63
2023/04/21 06:01:02;;;;;;;7.30;2.80;;;;;;;16.98;25.45;151549.72;5042801;28;20187;-64
2023/04/21 06:03:30;;;;;;;11.90;2.97;;;;;;;17.15;25.62;151592.22;5043321;28;20040;-63
2023/04/21 06:05:57;;;;;;;6.10;2.60;;;;;;;17.30;25.53;151629.59;5056696;28;20120;-64
2023/04/21 06:08:22;;;;;;;6.93;2.97;;;;;;;17.53;24.93;151688.91;5053635;28;20033;-63
2023/04/21 06:10:48;;;;;;;7.05;2.78;;;;;;;17.55;25.00;151692.75;5043368;28;20037;-65
2023/04/21 06:13:14;;;;;;;5.30;2.78;;;;;;;17.26;25.42;151620.59;5041806;28;20037;-65
2023/04/21 06:15:40;;;;;;;5.30;3.15;;;;;;;17.47;25.03;151672.13;5043298;28;20120;-65
2023/04/21 06:18:05;;;;;;;4.13;2.60;;;;;;;17.25;25.47;151618.00;5043192;28;20088;-64
2023/04/21 06:20:31;;;;;;;5.88;2.97;;;;;;;17.67;25.07;151723.72;5053472;28;20033;-66
2023/04/21 06:22:57;;;;;;;4.20;2.33;;;;;;;17.75;24.67;151744.31;5043963;28;20051;-65
2023/04/21 06:25:22;;;;;;;9.15;2.90;;;;;;;17.51;24.78;151683.72;5056028;28;20237;-64
2023/04/21 06:27:48;;;;;;;6.57;2.70;;;;;;;17.75;25.41;151744.31;5062069;28;20028;-64
2023/04/21 06:30:14;;;;;;;6.07;2.65;;;;;;;17.96;24.34;151794.63;5046825;28;20044;-64
2023/04/21 06:32:40;;;;;;;7.68;2.30;;;;;;;18.50;23.66;151931.38;5047834;28;20381;-65
2023/04/21 06:35:06;;;;;;;3.42;2.10;;;;;;;18.79;24.00;152004.88;5049054;28;20052;-64
2023/04/21 06:37:31;;;;;;;4.47;2.20;;;;;;;18.64;23.76;151966.19;5054794;28;20052;-65
2023/04/21 06:39:57;;;;;;;4.70;1.80;;;;;;;18.23;23.78;151863.00;5054297;28;20310;-65
2023/04/21 06:42:23;;;;;;;2.75;1.65;;;;;;;18.32;24.39;151884.94;5051597;28;20140;-66
2023/04/21 06:44:48;;;;;;;7.18;2.22;;;;;;;17.02;24.65;151560.03;5053445;28;20024;-63
2023/04/21 06:47:15;;;;;;;2.60;1.75;;;;;;;16.91;24.84;151532.94;5047749;28;20025;-64
2023/04/21 06:49:41;;;;;;;3.85;1.80;;;;;;;17.43;24.76;151664.41;5048454;28;20269;-65
2023/04/21 06:52:07;;;;;;;5.80;1.95;;;;;;;18.02;24.88;151811.41;5053270;28;20043;-64
2023/04/21 06:54:33;;;;;;;5.93;1.98;;;;;;;18.35;25.24;151893.94;5052584;28;20037;-65
2023/04/21 06:56:58;;;;;;;6.78;1.95;;;;;;;18.28;24.67;151877.19;5055600;28;20035;-66
2023/04/21 06:59:24;;;;;;;4.00;1.80;;;;;;;18.91;24.49;152033.31;5052977;28;20092;-65
2023/04/21 07:01:51;;;;;;;3.42;2.30;;;;;;;19.25;23.21;152119.78;5047495;28;20288;-66
2023/04/21 07:04:17;;;;;;;3.47;2.00;;;;;;;18.82;23.13;152010.06;5045045;28;20026;-66
2023/04/21 07:06:43;;;;;;;2.13;1.90;;;;;;;18.44;23.19;151917.16;5042634;28;20068;-65
2023/04/21 07:09:09;;;;;;;5.30;2.80;;;;;;;18.68;23.68;151976.47;5057413;28;20028;-65
2023/04/21 07:11:34;;;;;;;5.47;2.15;;;;;;;18.87;23.01;152024.28;5062323;28;20075;-65
2023/04/21 07:14:01;;;;;;;2.58;1.60;;;;;;;19.87;22.57;152273.44;5056902;28;20037;-65
2023/04/21 07:16:27;;;;;;;6.50;1.80;;;;;;;20.46;22.86;152423.19;5042483;28;20026;-66
2023/04/21 07:18:53;;;;;;;2.97;1.70;;;;;;;20.47;22.09;152425.81;5042879;28;20033;-65
2023/04/21 07:21:18;;;;;;;3.40;2.10;;;;;;;20.24;21.69;152367.69;5058735;28;20021;-64
2023/04/21 07:23:44;;;;;;;4.20;1.85;;;;;;;19.32;21.94;152136.53;5050851;28;20032;-65
2023/04/21 07:26:10;;;;;;;8.05;2.10;;;;;;;20.89;21.58;152530.47;5046058;28;20017;-65
2023/04/21 07:28:37;;;;;;;3.35;2.03;;;;;;;19.44;21.90;152166.25;5048094;28;20191;-65
2023/04/21 07:31:02;;;;;;;6.78;2.28;;;;;;;19.64;22.45;152217.88;5064267;28;20036;-65
2023/04/21 07:33:28;;;;;;;6.20;2.20;;;;;;;19.92;21.95;152286.34;5063889;28;20036;-66
2023/04/21 07:35:54;;;;;;;2.83;2.47;;;;;;;20.03;21.87;152314.75;5046689;28;20064;-64
2023/04/21 07:38:19;;;;;;;3.40;1.95;;;;;;;20.24;21.94;152366.41;5053847;28;20040;-64
2023/04/21 07:40:45;;;;;;;3.58;2.15;;;;;;;20.38;21.86;152401.25;5062785;28;20079;-65
2023/04/21 07:43:10;;;;;;;3.85;2.90;;;;;;;19.44;21.83;152167.53;5045848;28;20108;-65
2023/04/21 07:45:36;;;;;;;6.28;2.38;;;;;;;19.93;23.12;152290.19;5045917;28;20022;-65
2023/04/21 07:48:02;;;;;;;6.55;2.60;;;;;;;18.91;22.86;152034.63;5059214;28;20033;-65
2023/04/21 07:50:27;;;;;;;3.85;2.10;;;;;;;19.23;22.98;152113.34;5056461;28;20021;-65
2023/04/21 07:52:53;;;;;;;4.97;2.55;;;;;;;19.25;22.85;152118.47;5061033;28;20045;-64
2023/04/21 07:55:18;;;;;;;6.38;2.47;;;;;;;19.30;23.25;152131.41;5045575;28;20053;-65
2023/04/21 07:57:44;;;;;;;7.28;2.30;;;;;;;19.17;23.15;152097.81;5045465;28;20038;-65
2023/04/21 08:00:10;;;;;;;4.97;1.95;;;;;;;19.07;22.40;152074.63;5060173;28;20032;-66
2023/04/21 08:02:36;;;;;;;2.72;2.00;;;;;;;18.89;23.19;152029.44;5055295;28;20100;-65
2023/04/21 08:05:02;;;;;;;3.92;1.90;;;;;;;18.67;23.29;151973.94;5050989;28;20025;-64
2023/04/21 08:07:29;;;;;;;3.28;2.00;;;;;;;18.90;24.08;152030.75;5064598;28;20309;-65
2023/04/21 08:09:55;;;;;;;6.00;2.50;;;;;;;18.64;23.63;151966.19;5045551;28;20040;-66
2023/04/21 08:12:20;;;;;;;17.80;2.63;;;;;;;18.34;23.48;151890.06;5061231;28;20033;-64
2023/04/21 08:14:46;;;;;;;9.77;2.47;;;;;;;18.63;24.55;151963.59;5053899;28;20238;-65
2023/04/21 08:17:11;;;;;;;3.22;1.83;;;;;;;18.73;23.71;151988.13;5051743;28;20033;-66
2023/04/21 08:19:37;;;;;;;6.43;2.22;;;;;;;18.54;24.02;151941.69;5056238;28;20092;-68
2023/04/21 08:22:02;;;;;;;5.72;1.92;;;;;;;18.29;24.81;151878.47;5054001;28;20328;-64
2023/04/21 08:24:28;;;;;;;2.00;1.77;;;;;;;18.42;23.75;151912.00;5054207;28;20025;-66
2023/04/21 08:26:54;;;;;;;2.60;1.73;;;;;;;18.68;24.05;151976.47;5051006;28;20044;-65
2023/04/21 08:29:19;;;;;;;9.65;3.30;;;;;;;18.76;24.86;151997.13;5052364;28;20096;-65
2023/04/21 08:31:45;;;;;;;3.03;2.05;;;;;;;17.39;24.79;151652.81;5049149;28;20029;-64
2023/04/21 08:34:11;;;;;;;5.63;1.98;;;;;;;16.94;25.29;151540.66;5052806;28;20113;-65
2023/04/21 08:36:36;;;;;;;8.80;2.22;;;;;;;17.43;25.25;151664.41;5064214;28;20031;-64
2023/04/21 08:39:02;;;;;;;18.40;3.05;;;;;;;18.06;25.93;151821.72;5053712;28;20063;-65
2023/04/21 08:41:28;;;;;;;3.55;1.50;;;;;;;18.23;26.21;151863.00;5062032;28;20205;-64
2023/04/21 08:43:54;;;;;;;3.42;1.75;;;;;;;18.48;25.73;151924.91;5053454;28;20025;-64
2023/04/21 08:46:21;;;;;;;8.20;2.10;;;;;;;18.56;24.56;151946.81;5053172;28;20032;-64
2023/04/21 08:48:47;;;;;;;7.97;1.73;;;;;;;18.49;25.27;151928.78;5054603;28;20033;-64
2023/04/21 08:51:19;;;;;;;4.45;2.00;;;;;;;18.69;24.73;151977.81;5055020;28;20025;-64
2023/04/21 08:53:45;;;;;;;4.82;1.50;;;;;;;19.10;25.37;152081.06;5054816;28;20033;-64
2023/04/21 08:56:10;;;;;;;2.53;1.50;;;;;;;19.05;24.78;152069.41;5052159;28;20064;-63
2023/04/21 08:58:36;;;;;;;2.83;1.63;;;;;;;19.19;24.54;152103.00;5055328;28;20024;-65
2023/04/21 09:01:02;;;;;;;2.78;1.75;;;;;;;18.39;25.21;151904.25;5054309;28;20021;-65
2023/04/21 09:03:29;;;;;;;2.80;1.90;;;;;;;18.00;24.60;151804.94;5054529;28;20048;-64
2023/04/21 09:05:59;;;;;;;2.30;1.70;;;;;;;18.59;25.80;151953.28;5055049;28;20045;-64
2023/04/21 09:08:26;;;;;;;3.45;2.10;;;;;;;18.55;25.45;151942.97;5045804;28;20064;-64
2023/04/21 09:10:52;;;;;;;4.93;1.80;;;;;;;18.75;25.48;151994.53;5047837;28;20043;-65
2023/04/21 09:13:19;;;;;;;3.42;1.67;;;;;;;19.01;25.99;152059.16;5064278;28;20066;-65
2023/04/21 09:15:51;;;;;;;2.58;1.60;;;;;;;18.78;25.07;152002.31;5052084;28;20029;-65
2023/04/21 09:18:19;;;;;;;4.00;2.08;;;;;;;17.72;25.80;151736.56;5048679;28;20093;-65
2023/04/21 09:20:47;;;;;;;2.22;1.88;;;;;;;18.41;25.22;151908.13;5049339;28;20041;-65
2023/04/21 09:23:12;;;;;;;2.65;1.65;;;;;;;18.67;25.54;151973.94;5055010;28;20033;-65
2023/04/21 09:25:40;;;;;;;5.80;1.55;;;;;;;18.50;25.88;151931.38;5044551;28;20063;-65
2023/04/21 09:28:11;;;;;;;4.82;2.25;;;;;;;18.38;25.63;151901.66;5043946;28;20034;-66
2023/04/21 09:30:37;;;;;;;2.72;1.65;;;;;;;18.43;25.46;151914.59;5061466;28;20025;-66
2023/04/21 09:33:04;;;;;;;2.28;1.60;;;;;;;18.33;25.27;151888.78;5047475;28;20051;-65
2023/04/21 09:35:38;;;;;;;3.33;2.03;;;;;;;18.32;24.89;151886.19;5053941;28;20025;-65
2023/04/21 09:38:09;;;;;;;10.10;1.70;;;;;;;18.15;25.25;151843.66;5054249;28;20033;-65
2023/04/21 09:40:35;;;;;;;3.50;1.73;;;;;;;18.28;25.71;151877.19;5054051;28;20037;-66
2023/04/21 09:43:01;;;;;;;4.63;1.60;;;;;;;18.28;25.67;151875.88;5053965;28;20352;-66
2023/04/21 09:45:27;;;;;;;3.20;1.70;;;;;;;18.10;25.24;151832.03;5053369;28;20021;-66
2023/04/21 09:47:59;;;;;;;4.53;1.95;;;;;;;17.90;25.96;151781.75;5046078;28;20038;-65
2023/04/21 09:50:25;;;;;;;7.68;1.83;;;;;;;17.40;25.79;151655.34;4992605;28;20113;-66
2023/04/21 09:52:52;;;;;;;1.77;1.40;;;;;;;17.44;25.84;151665.66;5045935;28;20192;-65
2023/04/21 09:55:26;;;;;;;7.43;1.70;;;;;;;17.13;27.37;151587.06;5062805;28;20040;-64
2023/04/21 09:57:58;;;;;;;3.45;1.60;;;;;;;17.13;26.03;151587.06;5062494;28;20345;-65
2023/04/21 10:00:27;;;;;;;3.08;1.45;;;;;;;17.44;25.69;151665.66;5062676;28;20032;-64
2023/04/21 10:02:54;;;;;;;3.25;1.65;;;;;;;17.46;25.76;151669.53;5051706;28;20058;-64
2023/04/21 10:05:19;;;;;;;5.22;1.73;;;;;;;17.65;26.22;151718.53;5049845;28;20055;-64
2023/04/21 10:07:46;;;;;;;6.63;1.70;;;;;;;17.90;26.25;151780.41;5063488;28;20029;-65
2023/04/21 10:10:23;;;;;;;2.97;1.70;;;;;;;17.82;24.82;151759.81;5062714;28;20400;-65
2023/04/21 10:12:50;;;;;;;3.60;1.63;;;;;;;17.93;25.06;151788.22;5043538;28;20097;-65
2023/04/21 10:15:45;;;;;;;4.03;1.45;;;;;;;17.58;25.21;151701.75;5042818;28;20028;-65
2023/04/21 10:18:24;;;;;;;3.17;1.67;;;;;;;17.38;26.14;151651.50;5056156;28;20106;-67
2023/04/21 10:21:09;;;;;;;3.45;1.33;;;;;;;16.82;26.56;151509.72;5061947;28;20088;-64
2023/04/21 10:23:43;;;;;;;2.45;1.50;;;;;;;17.22;26.26;151611.53;5054360;28;20029;-64
2023/04/21 10:26:15;;;;;;;2.78;1.60;;;;;;;17.70;25.79;151731.44;5047622;28;20037;-64
2023/04/21 10:29:08;;;;;;;4.13;2.22;;;;;;;17.07;26.83;151574.19;5060120;28;20033;-64
2023/04/21 10:31:50;;;;;;;6.38;1.70;;;;;;;17.19;25.45;151603.81;5048084;28;20100;-65
2023/04/21 10:34:18;;;;;;;4.30;1.67;;;;;;;16.91;25.15;151534.22;5048729;28;20040;-65
2023/04/21 10:36:43;;;;;;;3.10;1.33;;;;;;;16.55;25.86;151442.72;5052475;28;20021;-65
2023/04/21 10:39:11;;;;;;;3.92;1.40;;;;;;;17.13;25.47;151587.06;5051428;28;20029;-65
2023/04/21 10:41:38;;;;;;;5.28;1.50;;;;;;;17.36;25.77;151645.09;5053189;28;20037;-65
2023/04/21 10:44:13;;;;;;;4.88;1.50;;;;;;;17.63;25.89;151713.38;5052448;28;20032;-64
2023/04/21 10:46:44;;;;;;;5.20;1.83;;;;;;;17.05;25.82;151567.75;5052686;28;20025;-65
2023/04/21 10:49:20;;;;;;;2.90;1.30;;;;;;;17.14;26.37;151589.66;5053178;28;20056;-65
2023/04/21 10:52:07;;;;;;;4.40;1.80;;;;;;;17.42;25.79;151660.53;5052209;28;21044;-65
2023/04/21 10:55:02;;;;;;;3.70;1.30;;;;;;;17.62;26.01;151710.81;5048074;28;20084;-64
2023/04/21 10:57:32;;;;;;;8.02;2.03;;;;;;;17.67;25.69;151722.38;5050898;28;20037;-64
2023/04/21 10:59:58;;;;;;;4.35;1.67;;;;;;;17.34;26.42;151639.91;5048864;28;20051;-64
2023/04/21 11:02:25;;;;;;;4.63;1.50;;;;;;;17.16;26.86;151594.78;5052180;28;20028;-64
2023/04/21 11:04:53;;;;;;;3.70;1.48;;;;;;;17.57;26.77;151697.88;5066555;28;20351;-66
2023/04/21 11:07:23;;;;;;;1.90;1.23;;;;;;;17.86;26.17;151771.41;5047134;28;20029;-64
2023/04/21 11:10:03;;;;;;;2.72;1.42;;;;;;;17.88;26.96;151775.25;5043145;28;20030;-65
2023/04/21 11:12:31;;;;;;;1.95;1.40;;;;;;;17.84;25.86;151766.25;5045239;28;20298;-64
2023/04/21 11:14:57;;;;;;;4.32;1.75;;;;;;;17.60;26.01;151706.94;5057468;28;20075;-65
2023/04/21 11:17:24;;;;;;;4.72;1.70;;;;;;;17.94;25.42;151790.75;5057334;28;20029;-65
2023/04/21 11:19:54;;;;;;;5.80;1.58;;;;;;;17.83;24.94;151762.34;5056444;28;20021;-64
2023/04/21 11:22:23;;;;;;;3.63;1.40;;;;;;;17.90;24.96;151780.41;5064955;28;20056;-65
2023/04/21 11:24:53;;;;;;;1.30;1.20;;;;;;;18.05;24.89;151819.13;5066248;28;20040;-64